首页
METAR-TAF:

METAR-TAF

机场 :

安托諾夫機場

Hostomel, 乌克兰

纬度: 50-36-01N, 经度: 030-11-37E, 海拔: 157米

当前天气观测

该预报发布于42分钟前的15:30 UTC
风速10节,风向西北
温度 17°C
湿度 27%
气压 1023 hPa
能见度10公里或以上
1500米以下无云,无积雨云

METAR: UKKM 081530Z 31005MPS CAVOK 17/M02 Q1023 R33/CLRD60 NOSIG

时间: 19:12 (16:12 UTC)

预报

该预报发布于5小时和8分钟前的11:04 UTC
预报有效从08日的 12点(UTC)到 09日的 12点(UTC)
风速10节,风向西转西北,有时为19节阵风
能见度10公里或以上
散云层高于3000英尺
短暂存在
从 08日的 12点(UTC)到 08日的 15点(UTC)
风速16节,风向北转西北,有时为27节阵风
成为
从 08日的 15点(UTC)到 08日的 17点(UTC)
风速6节,风向北转西北,有时为16节阵风
短暂存在
从 08日的 17点(UTC)到 09日的 06点(UTC)
风速2节,风向多变
能見度: 2100
成为
从 09日的 06点(UTC)到 09日的 07点(UTC)
风速12节,风向西南

TAF: UKKM 081104Z 0812/0912 30005G10MPS 9999 SCT030 TX20/0812Z TN04/0903Z TEMPO 0812/0815 33008G14MPS BECMG 0815/0817 34003G08MPS TEMPO 0817/0906 VRB01MPS 2100 FU BECMG 0906/0907 23006MPS

超过4000个机场的气象观测和天气预报(METAR&TAF报告)。

可查询的气象台以黄色和红色小点在地图上表示。

将鼠标移到小点上方,可查看气象台名称。

然后点击查看天气观测和预报。

如需切换地图:点击带黑十字的绿色按钮放大地图;点击带横线的绿色按钮缩小地图;或者点击绿色箭头查看邻近地区的地图。


METAR-TAF: